Impacts TAF Board
For situational awareness. Not to be used for flight planning purposes.
IDs:

KDMA - Tucson/Davis AFB, AZ, US

Issued at 1402 UTC 30 Oct 2020
Updated at 1622 UTC 30 Oct 2020
Potential Impact None Slight Moderate High
Time1558Z 30/17Z 30/18Z 30/19Z 30/20Z 30/21Z 30/22Z 30/23Z 31/00Z 31/01Z 31/02Z 31/03Z 31/04Z 31/05Z>>
Type OBS PRVL PRVL PRVL PRVL PRVL PRVL PRVL PRVL PRVL PRVL PRVL PRVL PRVL
VIS 10 >6 >6 >6 >6 >6 >6 >6 >6 >6 >6 >6 >6 >6
CIG -- -- -- -- -- -- -- -- -- -- -- -- -- --
Cover CLR FEW FEW FEW FEW FEW FEW FEW FEW FEW FEW FEW FEW FEW
FltCat VFR VFR VFR VFR VFR VFR VFR VFR VFR VFR VFR VFR VFR VFR
WX -- -- -- -- -- -- -- -- -- -- -- -- -- --
WDir 130 110 110 110 110 110 110 VRB VRB VRB VRB VRB 100 100
WSpd 11 9 9 9 9 9 9 6 6 6 6 6 9 9
WGst -- -- -- -- -- -- -- -- -- -- -- -- -- --
Raw TAF
TAF KDMA 301402Z 3014/3120 11009KT 9999 FEW250 QNH3000INS
  BECMG 3023/3024 VRB06KT 9999 FEW250 QNH3000INS
  BECMG 3104/3105 10009KT 9999 FEW250 QNH3005INS TX29/3022Z TN14/3113Z


Raw METAR
KDMA 301558Z AUTO 13011KT 10SM CLR 20/M01 A3010 RMK AO2 SLP164 T02021010 FZRANO $
KDMA 301458Z AUTO 12011KT 10SM CLR 18/M01 A3009 RMK AO2 SLP162 T01761011 52011 FZRANO $
KDMA 301358Z AUTO 11013KT 10SM CLR 15/M01 A3008 RMK AO2 SLP157 T01541012 FZRANO $

METAR Board
For situational awareness. Not to be used for flight planning purposes.